Time,TemperatureF,DewpointF,PressureIn,WindDirection,WindDirectionDegrees,WindSpeedMPH,WindSpeedGustMPH,Humidity,HourlyPrecipIn,Conditions,Clouds,dailyrainin,SoftwareType,DateUTC
2013-01-09 00:03:00,39.5,38.7,29.46,North,0,0.0,0.0,97,0.00,,,0.00,WUHU216HW,2013-01-09 08:03:00,
2013-01-09 00:08:00,39.5,38.7,29.46,WSW,248,0.0,0.0,97,0.00,,,0.00,WUHU216HW,2013-01-09 08:08:00,
2013-01-09 00:13:00,39.5,38.7,29.45,West,270,0.0,0.0,97,0.00,,,0.00,WUHU216HW,2013-01-09 08:13:00,
2013-01-09 00:18:00,39.3,38.5,29.45,SSW,203,0.0,0.0,97,0.00,,,0.00,WUHU216HW,2013-01-09 08:18:00,
2013-01-09 00:23:00,39.3,38.5,29.45,West,270,0.0,0.0,97,0.00,,,0.00,WUHU216HW,2013-01-09 08:23:00,
2013-01-09 00:28:00,39.3,38.5,29.45,WNW,293,0.0,0.0,97,0.00,,,0.00,WUHU216HW,2013-01-09 08:28:00,
2013-01-09 00:33:00,39.0,38.2,29.46,WNW,293,0.0,0.0,97,0.00,,,0.00,WUHU216HW,2013-01-09 08:33:00,
2013-01-09 00:38:00,39.0,38.2,29.45,West,270,0.0,0.0,97,0.00,,,0.00,WUHU216HW,2013-01-09 08:38:00,
2013-01-09 00:43:00,39.0,38.2,29.44,West,270,0.0,0.0,97,0.00,,,0.00,WUHU216HW,2013-01-09 08:43:00,
2013-01-09 00:48:00,38.8,38.0,29.45,West,270,0.0,0.0,97,0.00,,,0.00,WUHU216HW,2013-01-09 08:48:00,
2013-01-09 00:53:00,38.6,37.8,29.45,South,180,0.8,0.8,97,0.00,,,0.00,WUHU216HW,2013-01-09 08:53:00,
2013-01-09 00:58:00,39.0,38.2,29.45,WNW,293,0.0,0.8,97,0.00,,,0.00,WUHU216HW,2013-01-09 08:58:00,
2013-01-09 01:03:00,39.0,38.2,29.45,South,180,1.3,2.4,97,0.00,,,0.00,WUHU216HW,2013-01-09 09:03:00,
2013-01-09 01:08:00,39.0,38.2,29.45,West,270,0.0,2.4,97,0.00,,,0.00,WUHU216HW,2013-01-09 09:08:00,
2013-01-09 01:13:00,39.0,38.2,29.44,NNE,23,0.0,0.0,97,0.00,,,0.00,WUHU216HW,2013-01-09 09:13:00,
2013-01-09 01:18:00,38.4,37.6,29.44,South,180,1.3,1.3,97,0.00,,,0.00,WUHU216HW,2013-01-09 09:18:00,
2013-01-09 01:23:00,38.4,37.6,29.45,SSW,203,0.0,1.3,97,0.00,,,0.00,WUHU216HW,2013-01-09 09:23:00,
2013-01-09 01:28:00,38.4,37.6,29.44,SW,225,0.0,1.3,97,0.00,,,0.00,WUHU216HW,2013-01-09 09:28:00,
2013-01-09 01:33:00,38.4,37.6,29.44,West,270,0.0,1.3,97,0.00,,,0.00,WUHU216HW,2013-01-09 09:33:00,
2013-01-09 01:38:00,38.4,37.6,29.43,SSW,203,1.1,1.3,97,0.00,,,0.00,WUHU216HW,2013-01-09 09:38:00,
2013-01-09 01:43:00,38.4,37.6,29.43,South,180,0.0,1.1,97,0.00,,,0.00,WUHU216HW,2013-01-09 09:43:00,
2013-01-09 01:48:00,38.4,37.6,29.44,NNW,338,0.0,1.1,97,0.00,,,0.00,WUHU216HW,2013-01-09 09:48:00,
2013-01-09 01:53:00,38.4,37.6,29.42,South,180,0.0,0.0,97,0.00,,,0.00,WUHU216HW,2013-01-09 09:53:00,
2013-01-09 01:58:00,38.4,37.6,29.43,South,180,0.0,0.0,97,0.00,,,0.00,WUHU216HW,2013-01-09 09:58:00,
2013-01-09 02:03:00,38.3,37.4,29.42,NNE,23,1.3,1.3,97,0.00,,,0.00,WUHU216HW,2013-01-09 10:03:00,
2013-01-09 02:08:00,38.3,37.4,29.41,NNE,23,0.0,1.3,97,0.00,,,0.00,WUHU216HW,2013-01-09 10:08:00,
2013-01-09 02:13:00,38.3,37.4,29.41,NW,315,0.0,1.3,97,0.00,,,0.00,WUHU216HW,2013-01-09 10:13:00,
2013-01-09 02:19:00,38.1,37.3,29.41,North,0,0.0,0.0,97,0.00,,,0.00,WUHU216HW,2013-01-09 10:19:00,
2013-01-09 02:24:00,38.1,37.0,29.41,West,270,1.3,1.3,96,0.00,,,0.00,WUHU216HW,2013-01-09 10:24:00,
2013-01-09 02:29:00,38.1,37.0,29.41,SSW,203,1.7,1.7,96,0.00,,,0.00,WUHU216HW,2013-01-09 10:29:00,
2013-01-09 02:34:00,37.9,36.8,29.41,West,270,0.0,3.1,96,0.00,,,0.00,WUHU216HW,2013-01-09 10:34:00,
2013-01-09 02:39:00,37.9,36.8,29.41,West,270,0.0,3.1,96,0.00,,,0.00,WUHU216HW,2013-01-09 10:39:00,
2013-01-09 02:44:00,37.5,36.5,29.41,West,270,0.0,0.0,96,0.00,,,0.00,WUHU216HW,2013-01-09 10:44:00,
2013-01-09 02:49:00,37.7,36.6,29.40,WSW,248,0.0,0.0,96,0.00,,,0.00,WUHU216HW,2013-01-09 10:49:00,
2013-01-09 02:54:00,37.9,36.8,29.39,NNE,23,4.2,4.2,96,0.00,,,0.00,WUHU216HW,2013-01-09 10:54:00,
2013-01-09 02:59:00,38.1,37.3,29.40,West,270,0.0,4.2,97,0.00,,,0.00,WUHU216HW,2013-01-09 10:59:00,
2013-01-09 03:04:00,37.9,36.8,29.39,NE,45,0.0,4.2,96,0.00,,,0.00,WUHU216HW,2013-01-09 11:04:00,
2013-01-09 03:09:00,37.9,36.8,29.39,SSW,203,0.8,0.8,96,0.00,,,0.00,WUHU216HW,2013-01-09 11:09:00,
2013-01-09 03:14:00,37.9,36.8,29.39,SSW,203,0.0,0.8,96,0.00,,,0.00,WUHU216HW,2013-01-09 11:14:00,
2013-01-09 03:19:00,37.9,36.8,29.38,North,0,0.0,0.8,96,0.00,,,0.00,WUHU216HW,2013-01-09 11:19:00,
2013-01-09 03:24:00,37.9,36.8,29.38,West,270,0.0,0.0,96,0.00,,,0.00,WUHU216HW,2013-01-09 11:24:00,
2013-01-09 03:29:00,37.9,36.8,29.39,WSW,248,0.0,2.4,96,0.00,,,0.00,WUHU216HW,2013-01-09 11:29:00,
2013-01-09 03:34:00,37.9,36.8,29.38,North,0,2.0,2.4,96,0.00,,,0.00,WUHU216HW,2013-01-09 11:34:00,
2013-01-09 03:39:00,37.9,36.8,29.38,West,270,0.0,2.0,96,0.00,,,0.00,WUHU216HW,2013-01-09 11:39:00,
2013-01-09 03:44:00,37.9,36.8,29.37,West,270,0.0,2.0,96,0.00,,,0.00,WUHU216HW,2013-01-09 11:44:00,
2013-01-09 03:49:00,37.9,36.8,29.37,West,270,0.0,0.0,96,0.00,,,0.00,WUHU216HW,2013-01-09 11:49:00,
2013-01-09 03:54:00,37.9,36.8,29.37,SSW,203,0.0,0.0,96,0.00,,,0.00,WUHU216HW,2013-01-09 11:54:00,
2013-01-09 03:59:00,37.5,36.5,29.36,NNE,23,1.1,1.1,96,0.00,,,0.00,WUHU216HW,2013-01-09 11:59:00,
2013-01-09 04:04:00,37.5,36.5,29.36,North,0,0.0,1.1,96,0.00,,,0.00,WUHU216HW,2013-01-09 12:04:00,
2013-01-09 04:09:00,37.9,36.8,29.36,North,0,0.0,0.0,96,0.00,,,0.00,WUHU216HW,2013-01-09 12:09:00,
2013-01-09 04:14:00,37.9,36.8,29.36,WSW,248,0.0,0.0,96,0.00,,,0.00,WUHU216HW,2013-01-09 12:14:00,
2013-01-09 04:19:00,37.9,36.8,29.36,SSW,203,0.0,0.0,96,0.00,,,0.00,WUHU216HW,2013-01-09 12:19:00,
2013-01-09 04:24:00,37.9,36.8,29.36,South,180,0.0,0.0,96,0.00,,,0.00,WUHU216HW,2013-01-09 12:24:00,
2013-01-09 04:29:00,37.9,36.8,29.34,WSW,248,0.0,0.0,96,0.00,,,0.00,WUHU216HW,2013-01-09 12:29:00,
2013-01-09 04:34:00,37.9,36.8,29.34,West,270,0.0,0.0,96,0.00,,,0.00,WUHU216HW,2013-01-09 12:34:00,
2013-01-09 04:39:00,37.9,36.8,29.33,East,90,0.0,0.0,96,0.00,,,0.00,WUHU216HW,2013-01-09 12:39:00,
2013-01-09 04:44:00,38.1,37.0,29.33,SW,225,0.0,0.0,96,0.00,,,0.00,WUHU216HW,2013-01-09 12:44:00,
2013-01-09 04:49:00,37.9,36.8,29.33,South,180,0.0,0.0,96,0.00,,,0.00,WUHU216HW,2013-01-09 12:49:00,
2013-01-09 04:54:00,37.9,36.8,29.32,SSW,203,0.0,0.0,96,0.00,,,0.00,WUHU216HW,2013-01-09 12:54:00,
2013-01-09 04:59:00,37.9,36.8,29.31,SSW,203,0.0,0.0,96,0.00,,,0.00,WUHU216HW,2013-01-09 12:59:00,
2013-01-09 05:04:00,37.9,36.8,29.31,SSW,203,0.0,0.0,96,0.00,,,0.00,WUHU216HW,2013-01-09 13:04:00,
2013-01-09 05:09:00,37.9,36.8,29.31,South,180,0.0,0.0,96,0.00,,,0.00,WUHU216HW,2013-01-09 13:09:00,
2013-01-09 05:14:00,37.9,36.8,29.30,SSW,203,0.0,0.0,96,0.00,,,0.00,WUHU216HW,2013-01-09 13:14:00,
2013-01-09 05:19:00,37.9,36.8,29.29,SSW,203,0.0,0.0,96,0.00,,,0.00,WUHU216HW,2013-01-09 13:19:00,
2013-01-09 05:24:00,37.9,36.8,29.29,South,180,1.1,1.1,96,0.00,,,0.00,WUHU216HW,2013-01-09 13:24:00,
2013-01-09 05:29:00,38.1,37.3,29.29,South,180,0.0,1.1,97,0.00,,,0.00,WUHU216HW,2013-01-09 13:29:00,
2013-01-09 05:34:00,38.1,37.3,29.28,South,180,0.0,1.1,97,0.00,,,0.00,WUHU216HW,2013-01-09 13:34:00,
2013-01-09 05:39:00,38.1,37.3,29.28,South,180,0.0,1.3,97,0.00,,,0.00,WUHU216HW,2013-01-09 13:39:00,
2013-01-09 05:44:00,38.1,37.3,29.28,South,180,1.3,1.3,97,0.00,,,0.00,WUHU216HW,2013-01-09 13:44:00,
2013-01-09 05:49:00,38.3,37.4,29.27,SSW,203,0.0,1.3,97,0.00,,,0.00,WUHU216HW,2013-01-09 13:49:00,
2013-01-09 05:54:00,38.4,37.6,29.26,South,180,0.0,0.0,97,0.00,,,0.00,WUHU216HW,2013-01-09 13:54:00,
2013-01-09 05:59:00,38.4,37.6,29.26,South,180,0.0,0.0,97,0.00,,,0.00,WUHU216HW,2013-01-09 13:59:00,
2013-01-09 06:04:00,38.4,37.6,29.27,South,180,0.0,0.0,97,0.00,,,0.00,WUHU216HW,2013-01-09 14:04:00,
2013-01-09 06:09:00,38.8,38.0,29.26,SSE,158,0.0,0.0,97,0.00,,,0.00,WUHU216HW,2013-01-09 14:09:00,
2013-01-09 06:14:00,38.4,37.6,29.26,West,270,0.0,0.0,97,0.00,,,0.00,WUHU216HW,2013-01-09 14:14:00,
2013-01-09 06:19:00,38.3,37.4,29.26,SSW,203,0.0,1.5,97,0.00,,,0.00,WUHU216HW,2013-01-09 14:19:00,
2013-01-09 06:24:00,38.1,37.3,29.25,WSW,248,0.0,1.5,97,0.00,,,0.00,WUHU216HW,2013-01-09 14:24:00,
2013-01-09 06:29:00,38.1,37.3,29.25,WNW,293,0.0,0.0,97,0.00,,,0.00,WUHU216HW,2013-01-09 14:29:00,
2013-01-09 06:34:00,37.9,36.8,29.26,WNW,293,0.0,0.0,96,0.00,,,0.00,WUHU216HW,2013-01-09 14:34:00,
2013-01-09 06:39:00,37.9,36.8,29.27,WSW,248,0.0,0.0,96,0.02,,,0.02,WUHU216HW,2013-01-09 14:39:00,
2013-01-09 06:44:00,37.7,36.6,29.27,WSW,248,0.0,0.0,96,0.02,,,0.02,WUHU216HW,2013-01-09 14:44:00,
2013-01-09 06:49:00,37.5,36.5,29.28,SW,225,0.0,0.0,96,0.02,,,0.02,WUHU216HW,2013-01-09 14:49:00,
2013-01-09 06:54:00,37.5,36.5,29.29,WSW,248,0.0,0.0,96,0.04,,,0.04,WUHU216HW,2013-01-09 14:54:00,
2013-01-09 06:59:00,37.2,36.1,29.30,SW,225,0.0,0.0,96,0.04,,,0.04,WUHU216HW,2013-01-09 14:59:00,
2013-01-09 07:04:00,36.3,35.2,29.31,WNW,293,0.0,0.0,96,0.06,,,0.06,WUHU216HW,2013-01-09 15:04:00,
2013-01-09 07:09:00,35.7,34.7,29.32,West,270,0.0,0.0,96,0.06,,,0.06,WUHU216HW,2013-01-09 15:09:00,
2013-01-09 07:14:00,35.2,34.1,29.32,West,270,0.0,0.0,96,0.06,,,0.06,WUHU216HW,2013-01-09 15:14:00,
2013-01-09 07:19:00,34.8,34.0,29.33,West,270,0.0,0.0,97,0.06,,,0.06,WUHU216HW,2013-01-09 15:19:00,
2013-01-09 07:24:00,34.3,33.5,29.33,West,270,0.0,0.0,97,0.06,,,0.06,WUHU216HW,2013-01-09 15:24:00,
2013-01-09 07:29:00,34.3,33.5,29.33,West,270,0.0,0.0,97,0.06,,,0.06,WUHU216HW,2013-01-09 15:29:00,
2013-01-09 07:34:00,34.1,33.0,29.33,West,270,0.0,0.0,96,0.04,,,0.06,WUHU216HW,2013-01-09 15:34:00,
2013-01-09 07:39:00,33.9,32.9,29.33,West,270,0.0,0.0,96,0.04,,,0.06,WUHU216HW,2013-01-09 15:39:00,
2013-01-09 07:44:00,33.9,32.9,29.33,West,270,0.0,0.0,96,0.04,,,0.06,WUHU216HW,2013-01-09 15:44:00,
2013-01-09 07:49:00,33.6,32.5,29.33,West,270,0.0,0.0,96,0.04,,,0.06,WUHU216HW,2013-01-09 15:49:00,
2013-01-09 07:54:00,33.6,32.5,29.33,West,270,0.0,0.0,96,0.02,,,0.06,WUHU216HW,2013-01-09 15:54:00,
2013-01-09 07:59:00,33.4,32.3,29.33,West,270,0.0,0.0,96,0.02,,,0.06,WUHU216HW,2013-01-09 15:59:00,
2013-01-09 08:04:00,33.4,32.3,29.33,West,270,0.0,0.0,96,0.00,,,0.06,WUHU216HW,2013-01-09 16:04:00,
2013-01-09 08:09:00,33.4,32.3,29.34,West,270,0.0,0.0,96,0.00,,,0.06,WUHU216HW,2013-01-09 16:09:00,
2013-01-09 08:14:00,33.4,32.3,29.34,West,270,0.0,0.0,96,0.00,,,0.06,WUHU216HW,2013-01-09 16:14:00,
2013-01-09 08:19:00,33.2,32.1,29.34,West,270,0.0,0.0,96,0.00,,,0.06,WUHU216HW,2013-01-09 16:19:00,
2013-01-09 08:24:00,33.0,32.0,29.34,West,270,0.0,0.0,96,0.00,,,0.06,WUHU216HW,2013-01-09 16:24:00,
2013-01-09 08:29:00,33.0,32.0,29.34,West,270,0.0,0.0,96,0.00,,,0.06,WUHU216HW,2013-01-09 16:29:00,
2013-01-09 08:34:00,33.0,32.0,29.34,West,270,0.0,0.0,96,0.00,,,0.06,WUHU216HW,2013-01-09 16:34:00,
2013-01-09 08:39:00,33.0,32.0,29.34,West,270,0.0,0.0,96,0.00,,,0.06,WUHU216HW,2013-01-09 16:39:00,
2013-01-09 08:44:00,32.9,31.8,29.34,West,270,0.0,0.0,96,0.00,,,0.06,WUHU216HW,2013-01-09 16:44:00,
2013-01-09 08:49:00,32.9,31.8,29.35,West,270,0.0,0.0,96,0.00,,,0.06,WUHU216HW,2013-01-09 16:49:00,
2013-01-09 08:54:00,32.9,31.8,29.35,West,270,0.0,0.0,96,0.00,,,0.06,WUHU216HW,2013-01-09 16:54:00,
2013-01-09 08:59:00,32.7,31.6,29.35,West,270,0.0,0.0,96,0.00,,,0.06,WUHU216HW,2013-01-09 16:59:00,
2013-01-09 09:04:00,32.9,31.8,29.35,West,270,0.0,0.0,96,0.00,,,0.06,WUHU216HW,2013-01-09 17:04:00,
2013-01-09 09:09:00,32.7,31.6,29.35,West,270,0.0,0.0,96,0.00,,,0.06,WUHU216HW,2013-01-09 17:09:00,
2013-01-09 09:14:00,32.7,31.6,29.36,West,270,0.0,0.0,96,0.00,,,0.06,WUHU216HW,2013-01-09 17:14:00,
2013-01-09 09:19:00,32.7,31.6,29.36,West,270,0.0,0.0,96,0.00,,,0.06,WUHU216HW,2013-01-09 17:19:00,
2013-01-09 09:24:00,32.7,31.6,29.37,West,270,0.0,0.0,96,0.00,,,0.06,WUHU216HW,2013-01-09 17:24:00,
2013-01-09 09:29:00,32.7,31.6,29.36,West,270,0.0,0.0,96,0.00,,,0.06,WUHU216HW,2013-01-09 17:29:00,
2013-01-09 09:34:00,32.7,31.6,29.36,West,270,0.0,0.0,96,0.00,,,0.06,WUHU216HW,2013-01-09 17:34:00,
2013-01-09 09:39:00,32.7,31.6,29.36,West,270,0.0,0.0,96,0.00,,,0.06,WUHU216HW,2013-01-09 17:39:00,
2013-01-09 09:44:00,32.7,31.6,29.36,West,270,0.0,0.0,96,0.00,,,0.06,WUHU216HW,2013-01-09 17:44:00,
2013-01-09 09:49:00,32.7,31.6,29.36,West,270,0.0,0.0,96,0.02,,,0.08,WUHU216HW,2013-01-09 17:49:00,
2013-01-09 09:54:00,32.7,31.6,29.36,West,270,0.0,0.0,96,0.02,,,0.08,WUHU216HW,2013-01-09 17:54:00,
2013-01-09 09:59:00,32.7,31.6,29.36,West,270,0.0,0.0,96,0.02,,,0.08,WUHU216HW,2013-01-09 17:59:00,
2013-01-09 10:04:00,32.7,31.6,29.36,West,270,0.0,0.0,96,0.02,,,0.08,WUHU216HW,2013-01-09 18:04:00,
2013-01-09 10:09:00,32.7,31.6,29.37,West,270,0.0,0.0,96,0.02,,,0.08,WUHU216HW,2013-01-09 18:09:00,
2013-01-09 10:14:00,32.9,31.8,29.37,West,270,0.0,0.0,96,0.02,,,0.08,WUHU216HW,2013-01-09 18:14:00,
2013-01-09 10:19:00,32.7,31.6,29.38,West,270,0.0,0.0,96,0.02,,,0.08,WUHU216HW,2013-01-09 18:19:00,
2013-01-09 10:24:00,32.9,31.8,29.38,West,270,0.0,0.0,96,0.02,,,0.08,WUHU216HW,2013-01-09 18:24:00,
2013-01-09 10:29:00,32.9,31.8,29.38,West,270,0.0,0.0,96,0.02,,,0.08,WUHU216HW,2013-01-09 18:29:00,
2013-01-09 10:34:00,32.9,31.8,29.38,West,270,0.0,0.0,96,0.02,,,0.08,WUHU216HW,2013-01-09 18:34:00,
2013-01-09 10:39:00,32.7,31.6,29.39,West,270,0.0,0.0,96,0.02,,,0.08,WUHU216HW,2013-01-09 18:39:00,
2013-01-09 10:41:00,32.7,31.6,29.39,West,270,0.0,0.0,96,0.02,,,0.08,WUHU216HW,2013-01-09 18:41:00,
2013-01-09 10:42:00,32.7,31.6,29.39,West,270,0.0,0.0,96,0.02,,,0.08,WUHU216HW,2013-01-09 18:42:00,
2013-01-09 10:44:00,32.9,31.8,29.39,West,270,0.0,0.0,96,0.00,,,0.08,WUHU216HW,2013-01-09 18:44:00,
2013-01-09 10:45:00,32.9,31.8,29.38,West,270,0.0,0.0,96,0.00,,,0.08,WUHU216HW,2013-01-09 18:45:00,
2013-01-09 10:48:00,32.9,31.8,29.38,WNW,293,0.0,0.0,96,0.00,,,0.08,WUHU216HW,2013-01-09 18:48:00,
2013-01-09 10:53:00,33.0,32.0,29.39,WNW,293,0.0,0.0,96,0.00,,,0.08,WUHU216HW,2013-01-09 18:53:00,
2013-01-09 10:58:00,33.0,32.0,29.39,WNW,293,0.0,0.0,96,0.00,,,0.08,WUHU216HW,2013-01-09 18:58:00,
2013-01-09 11:04:00,33.0,32.0,29.39,WNW,293,0.0,0.0,96,0.00,,,0.08,WUHU216HW,2013-01-09 19:04:00,
2013-01-09 11:09:00,33.2,32.1,29.38,WNW,293,0.0,0.0,96,0.00,,,0.08,WUHU216HW,2013-01-09 19:09:00,
2013-01-09 11:14:00,33.4,32.3,29.38,WNW,293,0.0,0.0,96,0.00,,,0.08,WUHU216HW,2013-01-09 19:14:00,
2013-01-09 11:19:00,33.4,32.3,29.38,WNW,293,0.0,0.0,96,0.00,,,0.08,WUHU216HW,2013-01-09 19:19:00,
2013-01-09 11:24:00,33.4,32.3,29.38,WNW,293,0.0,0.0,96,0.00,,,0.08,WUHU216HW,2013-01-09 19:24:00,
2013-01-09 11:29:00,33.4,32.3,29.39,WNW,293,0.0,0.0,96,0.02,,,0.10,WUHU216HW,2013-01-09 19:29:00,
2013-01-09 11:34:00,33.4,32.3,29.38,WNW,293,0.0,0.0,96,0.02,,,0.10,WUHU216HW,2013-01-09 19:34:00,
2013-01-09 11:39:00,33.4,32.3,29.39,WNW,293,0.0,0.0,96,0.02,,,0.10,WUHU216HW,2013-01-09 19:39:00,
2013-01-09 11:44:00,33.4,32.3,29.38,WNW,293,0.0,0.0,96,0.02,,,0.10,WUHU216HW,2013-01-09 19:44:00,
2013-01-09 11:49:00,33.4,32.3,29.38,WNW,293,0.0,0.0,96,0.02,,,0.10,WUHU216HW,2013-01-09 19:49:00,
2013-01-09 11:54:00,33.2,32.1,29.39,WNW,293,0.0,0.0,96,0.02,,,0.10,WUHU216HW,2013-01-09 19:54:00,
2013-01-09 11:59:00,33.4,32.3,29.39,WNW,293,0.0,0.0,96,0.02,,,0.10,WUHU216HW,2013-01-09 19:59:00,
2013-01-09 12:04:00,33.2,32.1,29.39,WNW,293,0.0,0.0,96,0.02,,,0.10,WUHU216HW,2013-01-09 20:04:00,
2013-01-09 12:09:00,33.2,32.1,29.39,WNW,293,0.0,0.0,96,0.02,,,0.10,WUHU216HW,2013-01-09 20:09:00,
2013-01-09 12:14:00,33.2,32.1,29.39,WNW,293,0.0,0.0,96,0.04,,,0.12,WUHU216HW,2013-01-09 20:14:00,
2013-01-09 12:19:00,33.2,32.1,29.39,WNW,293,0.0,0.0,96,0.04,,,0.12,WUHU216HW,2013-01-09 20:19:00,
2013-01-09 12:24:00,33.4,32.3,29.39,WNW,293,0.0,0.0,96,0.04,,,0.12,WUHU216HW,2013-01-09 20:24:00,
2013-01-09 12:29:00,33.2,32.1,29.39,WNW,293,0.0,0.0,96,0.02,,,0.12,WUHU216HW,2013-01-09 20:29:00,
2013-01-09 12:34:00,33.4,32.3,29.39,WNW,293,0.0,0.0,96,0.02,,,0.12,WUHU216HW,2013-01-09 20:34:00,
2013-01-09 12:39:00,33.6,32.5,29.39,WNW,293,0.0,0.0,96,0.02,,,0.12,WUHU216HW,2013-01-09 20:39:00,
2013-01-09 12:44:00,33.6,32.5,29.39,WNW,293,0.0,0.0,96,0.02,,,0.12,WUHU216HW,2013-01-09 20:44:00,
2013-01-09 12:49:00,33.6,32.5,29.39,WNW,293,0.0,0.0,96,0.02,,,0.12,WUHU216HW,2013-01-09 20:49:00,
2013-01-09 12:54:00,33.6,32.5,29.40,WNW,293,0.0,0.0,96,0.02,,,0.12,WUHU216HW,2013-01-09 20:54:00,
2013-01-09 12:59:00,33.6,32.5,29.41,WNW,293,0.0,0.0,96,0.02,,,0.12,WUHU216HW,2013-01-09 20:59:00,
2013-01-09 13:04:00,33.6,32.5,29.41,WNW,293,0.0,0.0,96,0.02,,,0.12,WUHU216HW,2013-01-09 21:04:00,
2013-01-09 13:09:00,33.6,32.5,29.41,WNW,293,0.0,0.0,96,0.00,,,0.12,WUHU216HW,2013-01-09 21:09:00,
2013-01-09 13:14:00,33.4,32.3,29.41,WNW,293,0.0,0.0,96,0.00,,,0.12,WUHU216HW,2013-01-09 21:14:00,
2013-01-09 13:19:00,33.4,32.3,29.41,WNW,293,0.0,0.0,96,0.00,,,0.12,WUHU216HW,2013-01-09 21:19:00,
2013-01-09 13:24:00,33.4,32.3,29.41,WNW,293,0.0,0.0,96,0.00,,,0.12,WUHU216HW,2013-01-09 21:24:00,
2013-01-09 13:29:00,33.4,32.3,29.41,WNW,293,0.0,0.0,96,0.02,,,0.14,WUHU216HW,2013-01-09 21:29:00,
2013-01-09 13:34:00,33.4,32.3,29.41,WNW,293,0.0,0.0,96,0.02,,,0.14,WUHU216HW,2013-01-09 21:34:00,
2013-01-09 13:39:00,33.4,32.3,29.41,WNW,293,0.0,0.0,96,0.02,,,0.14,WUHU216HW,2013-01-09 21:39:00,
2013-01-09 13:44:00,33.4,32.3,29.41,WNW,293,0.0,0.0,96,0.02,,,0.14,WUHU216HW,2013-01-09 21:44:00,
2013-01-09 13:49:00,33.6,32.5,29.42,WNW,293,0.0,0.0,96,0.02,,,0.14,WUHU216HW,2013-01-09 21:49:00,
2013-01-09 13:54:00,33.6,32.5,29.42,WNW,293,0.0,0.0,96,0.02,,,0.14,WUHU216HW,2013-01-09 21:54:00,
2013-01-09 13:59:00,33.6,32.5,29.42,WNW,293,0.0,0.0,96,0.02,,,0.14,WUHU216HW,2013-01-09 21:59:00,
2013-01-09 14:04:00,33.4,32.3,29.42,WNW,293,0.0,0.0,96,0.02,,,0.14,WUHU216HW,2013-01-09 22:04:00,
2013-01-09 14:09:00,33.4,32.3,29.42,WNW,293,0.0,0.0,96,0.02,,,0.14,WUHU216HW,2013-01-09 22:09:00,
2013-01-09 14:14:00,33.4,32.3,29.43,WNW,293,0.0,0.0,96,0.02,,,0.14,WUHU216HW,2013-01-09 22:14:00,
2013-01-09 14:19:00,33.0,32.0,29.43,WNW,293,0.0,0.0,96,0.02,,,0.14,WUHU216HW,2013-01-09 22:19:00,
2013-01-09 14:24:00,33.0,32.0,29.43,WNW,293,0.0,0.0,96,0.02,,,0.14,WUHU216HW,2013-01-09 22:24:00,
2013-01-09 14:29:00,33.0,32.0,29.43,WNW,293,0.0,0.0,96,0.02,,,0.16,WUHU216HW,2013-01-09 22:29:00,
2013-01-09 14:34:00,33.2,32.1,29.43,WNW,293,0.0,0.0,96,0.02,,,0.16,WUHU216HW,2013-01-09 22:34:00,
2013-01-09 14:39:00,33.0,32.0,29.43,WNW,293,0.0,0.0,96,0.02,,,0.16,WUHU216HW,2013-01-09 22:39:00,
2013-01-09 14:44:00,33.0,32.0,29.43,WNW,293,0.0,0.0,96,0.02,,,0.16,WUHU216HW,2013-01-09 22:44:00,
2013-01-09 14:49:00,33.2,32.1,29.43,WNW,293,0.0,0.0,96,0.02,,,0.16,WUHU216HW,2013-01-09 22:49:00,
2013-01-09 14:54:00,33.2,32.1,29.43,WNW,293,0.0,0.0,96,0.02,,,0.16,WUHU216HW,2013-01-09 22:54:00,
2013-01-09 14:59:00,33.2,32.1,29.43,WNW,293,0.0,0.0,96,0.02,,,0.16,WUHU216HW,2013-01-09 22:59:00,
2013-01-09 15:04:00,33.0,32.0,29.44,WNW,293,0.0,0.0,96,0.02,,,0.16,WUHU216HW,2013-01-09 23:04:00,
2013-01-09 15:09:00,33.0,32.0,29.44,WNW,293,0.0,0.0,96,0.02,,,0.16,WUHU216HW,2013-01-09 23:09:00,
2013-01-09 15:14:00,33.0,32.0,29.45,WNW,293,0.0,0.0,96,0.02,,,0.16,WUHU216HW,2013-01-09 23:14:00,
2013-01-09 15:19:00,32.9,31.8,29.45,WNW,293,0.0,0.0,96,0.02,,,0.16,WUHU216HW,2013-01-09 23:19:00,
2013-01-09 15:24:00,32.9,31.8,29.46,WNW,293,0.0,0.0,96,0.02,,,0.16,WUHU216HW,2013-01-09 23:24:00,
2013-01-09 15:29:00,32.7,31.6,29.46,WNW,293,0.0,0.0,96,0.00,,,0.16,WUHU216HW,2013-01-09 23:29:00,
2013-01-09 15:34:00,32.9,31.8,29.46,WNW,293,0.0,0.0,96,0.00,,,0.16,WUHU216HW,2013-01-09 23:34:00,
2013-01-09 15:39:00,32.9,31.8,29.46,WNW,293,0.0,0.0,96,0.00,,,0.16,WUHU216HW,2013-01-09 23:39:00,
2013-01-09 15:44:00,33.0,32.0,29.46,WNW,293,0.0,0.0,96,0.00,,,0.16,WUHU216HW,2013-01-09 23:44:00,
2013-01-09 15:49:00,33.0,32.0,29.46,WNW,293,0.0,0.0,96,0.00,,,0.16,WUHU216HW,2013-01-09 23:49:00,
2013-01-09 15:54:00,33.0,32.0,29.46,WNW,293,0.0,0.0,96,0.00,,,0.16,WUHU216HW,2013-01-09 23:54:00,
2013-01-09 15:59:00,33.0,32.0,29.46,WNW,293,0.0,0.0,96,0.00,,,0.16,WUHU216HW,2013-01-09 23:59:00,
2013-01-09 16:04:00,32.9,31.8,29.46,WNW,293,0.0,0.0,96,0.00,,,0.16,WUHU216HW,2013-01-10 00:04:00,
2013-01-09 16:09:00,32.9,31.8,29.46,WNW,293,0.0,0.0,96,0.00,,,0.16,WUHU216HW,2013-01-10 00:09:00,
2013-01-09 16:14:00,32.9,31.8,29.46,WNW,293,0.0,0.0,96,0.00,,,0.16,WUHU216HW,2013-01-10 00:14:00,
2013-01-09 16:19:00,32.7,31.6,29.46,WNW,293,0.0,0.0,96,0.00,,,0.16,WUHU216HW,2013-01-10 00:19:00,
2013-01-09 16:24:00,32.7,31.6,29.47,WNW,293,0.0,0.0,96,0.00,,,0.16,WUHU216HW,2013-01-10 00:24:00,
2013-01-09 16:29:00,32.7,31.6,29.47,WNW,293,0.0,0.0,96,0.00,,,0.16,WUHU216HW,2013-01-10 00:29:00,
2013-01-09 16:34:00,32.7,31.6,29.47,WNW,293,0.0,0.0,96,0.00,,,0.16,WUHU216HW,2013-01-10 00:34:00,
2013-01-09 16:39:00,32.5,31.4,29.47,WNW,293,0.0,0.0,96,0.02,,,0.18,WUHU216HW,2013-01-10 00:39:00,
2013-01-09 16:44:00,32.5,31.4,29.47,WNW,293,0.0,0.0,96,0.02,,,0.18,WUHU216HW,2013-01-10 00:44:00,
2013-01-09 16:49:00,32.5,31.4,29.47,WNW,293,0.0,0.0,96,0.02,,,0.18,WUHU216HW,2013-01-10 00:49:00,
2013-01-09 16:54:00,32.3,31.3,29.48,WNW,293,0.0,0.0,96,0.02,,,0.18,WUHU216HW,2013-01-10 00:54:00,
2013-01-09 16:59:00,32.3,31.3,29.48,WNW,293,0.0,0.0,96,0.02,,,0.18,WUHU216HW,2013-01-10 00:59:00,
2013-01-09 17:04:00,32.3,31.3,29.47,WNW,293,0.0,0.0,96,0.02,,,0.18,WUHU216HW,2013-01-10 01:04:00,
2013-01-09 17:09:00,32.3,31.3,29.47,WNW,293,0.0,0.0,96,0.02,,,0.18,WUHU216HW,2013-01-10 01:09:00,
2013-01-09 17:14:00,32.3,31.3,29.47,WNW,293,0.0,0.0,96,0.02,,,0.18,WUHU216HW,2013-01-10 01:14:00,
2013-01-09 17:19:00,32.3,31.3,29.47,WNW,293,0.0,0.0,96,0.02,,,0.18,WUHU216HW,2013-01-10 01:19:00,
2013-01-09 17:24:00,32.3,31.3,29.48,WNW,293,0.0,0.0,96,0.02,,,0.18,WUHU216HW,2013-01-10 01:24:00,
2013-01-09 17:29:00,32.3,31.3,29.48,WNW,293,0.0,0.0,96,0.02,,,0.18,WUHU216HW,2013-01-10 01:29:00,
2013-01-09 17:34:00,32.1,31.1,29.48,WNW,293,0.0,0.0,96,0.00,,,0.18,WUHU216HW,2013-01-10 01:34:00,
2013-01-09 17:39:00,32.1,31.1,29.48,WNW,293,0.0,0.0,96,0.00,,,0.18,WUHU216HW,2013-01-10 01:39:00,
2013-01-09 17:44:00,32.1,31.1,29.48,WNW,293,0.0,0.0,96,0.00,,,0.18,WUHU216HW,2013-01-10 01:44:00,
2013-01-09 17:49:00,32.1,31.1,29.48,WNW,293,0.0,0.0,96,0.00,,,0.18,WUHU216HW,2013-01-10 01:49:00,
2013-01-09 17:54:00,32.1,31.1,29.49,WNW,293,0.0,0.0,96,0.00,,,0.18,WUHU216HW,2013-01-10 01:54:00,
2013-01-09 17:59:00,32.1,31.1,29.49,WNW,293,0.0,0.0,96,0.00,,,0.18,WUHU216HW,2013-01-10 01:59:00,
2013-01-09 18:04:00,32.1,31.1,29.49,WNW,293,0.0,0.0,96,0.00,,,0.18,WUHU216HW,2013-01-10 02:04:00,
2013-01-09 18:09:00,32.1,31.1,29.49,WNW,293,0.0,0.0,96,0.00,,,0.18,WUHU216HW,2013-01-10 02:09:00,
2013-01-09 18:14:00,32.1,31.1,29.49,WNW,293,0.0,0.0,96,0.00,,,0.18,WUHU216HW,2013-01-10 02:14:00,
2013-01-09 18:19:00,32.1,31.1,29.49,WNW,293,0.0,0.0,96,0.00,,,0.18,WUHU216HW,2013-01-10 02:19:00,
2013-01-09 18:24:00,32.1,31.1,29.49,WNW,293,0.0,0.0,96,0.00,,,0.18,WUHU216HW,2013-01-10 02:24:00,
2013-01-09 18:29:00,32.0,30.9,29.49,WNW,293,0.0,0.0,96,0.00,,,0.18,WUHU216HW,2013-01-10 02:29:00,
2013-01-09 18:34:00,31.8,30.8,29.49,WNW,293,0.0,0.0,96,0.00,,,0.18,WUHU216HW,2013-01-10 02:34:00,
2013-01-09 18:39:00,31.8,30.8,29.49,WNW,293,0.0,0.0,96,0.00,,,0.18,WUHU216HW,2013-01-10 02:39:00,
2013-01-09 18:44:00,31.8,30.8,29.49,WNW,293,0.0,0.0,96,0.00,,,0.18,WUHU216HW,2013-01-10 02:44:00,
2013-01-09 18:49:00,31.8,30.8,29.49,WNW,293,0.0,0.0,96,0.00,,,0.18,WUHU216HW,2013-01-10 02:49:00,
2013-01-09 18:54:00,31.8,30.8,29.49,WNW,293,0.0,0.0,96,0.00,,,0.18,WUHU216HW,2013-01-10 02:54:00,
2013-01-09 18:59:00,31.8,30.8,29.50,WNW,293,0.0,0.0,96,0.00,,,0.18,WUHU216HW,2013-01-10 02:59:00,
2013-01-09 19:04:00,31.8,30.8,29.50,WNW,293,0.0,0.0,96,0.00,,,0.18,WUHU216HW,2013-01-10 03:04:00,
2013-01-09 19:09:00,31.8,30.8,29.50,WNW,293,0.0,0.0,96,0.00,,,0.18,WUHU216HW,2013-01-10 03:09:00,
2013-01-09 19:14:00,31.8,30.8,29.50,WNW,293,0.0,0.0,96,0.00,,,0.18,WUHU216HW,2013-01-10 03:14:00,
2013-01-09 19:19:00,31.8,30.8,29.51,WNW,293,0.0,0.0,96,0.00,,,0.18,WUHU216HW,2013-01-10 03:19:00,
2013-01-09 19:24:00,31.8,30.8,29.51,WNW,293,0.0,0.0,96,0.00,,,0.18,WUHU216HW,2013-01-10 03:24:00,
2013-01-09 19:29:00,31.8,30.8,29.50,WNW,293,0.0,0.0,96,0.00,,,0.18,WUHU216HW,2013-01-10 03:29:00,
2013-01-09 19:34:00,31.8,30.8,29.51,WNW,293,0.0,0.0,96,0.00,,,0.18,WUHU216HW,2013-01-10 03:34:00,
2013-01-09 19:39:00,31.8,30.8,29.51,WNW,293,0.0,0.0,96,0.00,,,0.18,WUHU216HW,2013-01-10 03:39:00,
2013-01-09 19:44:00,31.8,30.8,29.50,WNW,293,0.0,0.0,96,0.00,,,0.18,WUHU216HW,2013-01-10 03:44:00,
2013-01-09 19:49:00,31.8,30.8,29.50,WNW,293,0.0,0.0,96,0.00,,,0.18,WUHU216HW,2013-01-10 03:49:00,
2013-01-09 19:54:00,31.8,30.8,29.50,WNW,293,0.0,0.0,96,0.00,,,0.18,WUHU216HW,2013-01-10 03:54:00,
2013-01-09 19:59:00,31.8,30.8,29.50,WNW,293,0.0,0.0,96,0.00,,,0.18,WUHU216HW,2013-01-10 03:59:00,
2013-01-09 20:04:00,31.8,30.8,29.50,WNW,293,0.0,0.0,96,0.00,,,0.18,WUHU216HW,2013-01-10 04:04:00,
2013-01-09 20:09:00,31.8,30.8,29.51,WNW,293,0.0,0.0,96,0.00,,,0.18,WUHU216HW,2013-01-10 04:09:00,
2013-01-09 20:14:00,31.8,30.8,29.51,WNW,293,0.0,0.0,96,0.00,,,0.18,WUHU216HW,2013-01-10 04:14:00,
2013-01-09 20:19:00,31.8,30.8,29.51,WNW,293,0.0,0.0,96,0.00,,,0.18,WUHU216HW,2013-01-10 04:19:00,
2013-01-09 20:24:00,31.6,30.6,29.51,WNW,293,0.0,0.0,96,0.00,,,0.18,WUHU216HW,2013-01-10 04:24:00,
2013-01-09 20:29:00,31.6,30.6,29.51,WNW,293,0.0,0.0,96,0.00,,,0.18,WUHU216HW,2013-01-10 04:29:00,
2013-01-09 20:34:00,31.6,30.6,29.51,WNW,293,0.0,0.0,96,0.00,,,0.18,WUHU216HW,2013-01-10 04:34:00,
2013-01-09 20:39:00,31.8,30.8,29.51,WNW,293,0.0,0.0,96,0.00,,,0.18,WUHU216HW,2013-01-10 04:39:00,
2013-01-09 20:44:00,31.6,30.6,29.51,WNW,293,0.0,0.0,96,0.00,,,0.18,WUHU216HW,2013-01-10 04:44:00,
2013-01-09 20:49:00,31.8,30.8,29.51,WNW,293,0.0,0.0,96,0.00,,,0.18,WUHU216HW,2013-01-10 04:49:00,
2013-01-09 20:54:00,31.8,30.8,29.51,WNW,293,0.0,0.0,96,0.00,,,0.18,WUHU216HW,2013-01-10 04:54:00,
2013-01-09 21:00:00,31.8,30.8,29.51,WNW,293,0.0,0.0,96,0.00,,,0.18,WUHU216HW,2013-01-10 05:00:00,
2013-01-09 21:01:00,31.8,30.8,29.51,WNW,293,0.0,0.0,96,0.00,,,0.18,WUHU216HW,2013-01-10 05:01:00,
2013-01-09 21:06:00,31.8,30.8,29.51,WNW,293,0.0,0.0,96,0.00,,,0.18,WUHU216HW,2013-01-10 05:06:00,
2013-01-09 21:11:00,31.8,30.8,29.51,WNW,293,0.0,0.0,96,0.00,,,0.18,WUHU216HW,2013-01-10 05:11:00,
2013-01-09 21:16:00,31.8,30.8,29.51,WNW,293,0.0,0.0,96,0.00,,,0.18,WUHU216HW,2013-01-10 05:16:00,
2013-01-09 21:21:00,31.8,30.8,29.51,WNW,293,0.0,0.0,96,0.00,,,0.18,WUHU216HW,2013-01-10 05:21:00,
2013-01-09 21:26:00,31.8,30.8,29.51,WNW,293,0.0,0.0,96,0.00,,,0.18,WUHU216HW,2013-01-10 05:26:00,
2013-01-09 21:31:00,31.8,30.8,29.51,WNW,293,0.0,0.0,96,0.00,,,0.18,WUHU216HW,2013-01-10 05:31:00,
2013-01-09 21:36:00,31.6,30.6,29.51,WNW,293,0.0,0.0,96,0.00,,,0.18,WUHU216HW,2013-01-10 05:36:00,
2013-01-09 21:41:00,31.6,30.6,29.51,WNW,293,0.0,0.0,96,0.00,,,0.18,WUHU216HW,2013-01-10 05:41:00,
2013-01-09 21:46:00,31.6,30.6,29.51,WNW,293,0.0,0.0,96,0.00,,,0.18,WUHU216HW,2013-01-10 05:46:00,
2013-01-09 21:51:00,31.6,30.6,29.52,WNW,293,0.0,0.0,96,0.00,,,0.18,WUHU216HW,2013-01-10 05:51:00,
2013-01-09 21:56:00,31.6,30.6,29.51,WNW,293,0.0,0.0,96,0.00,,,0.18,WUHU216HW,2013-01-10 05:56:00,
2013-01-09 22:01:00,31.6,30.6,29.52,WNW,293,0.0,0.0,96,0.00,,,0.18,WUHU216HW,2013-01-10 06:01:00,
2013-01-09 22:06:00,31.6,30.6,29.52,WNW,293,0.0,0.0,96,0.00,,,0.18,WUHU216HW,2013-01-10 06:06:00,
2013-01-09 22:11:00,31.6,30.6,29.52,WNW,293,0.0,0.0,96,0.00,,,0.18,WUHU216HW,2013-01-10 06:11:00,
2013-01-09 22:16:00,31.6,30.6,29.53,WNW,293,0.0,0.0,96,0.00,,,0.18,WUHU216HW,2013-01-10 06:16:00,
2013-01-09 22:21:00,31.6,30.6,29.52,WNW,293,0.0,0.0,96,0.00,,,0.18,WUHU216HW,2013-01-10 06:21:00,
2013-01-09 22:26:00,31.6,30.6,29.52,WNW,293,0.0,0.0,96,0.00,,,0.18,WUHU216HW,2013-01-10 06:26:00,
2013-01-09 22:31:00,31.6,30.6,29.52,WNW,293,0.0,0.0,96,0.00,,,0.18,WUHU216HW,2013-01-10 06:31:00,
2013-01-09 22:36:00,31.6,30.6,29.53,WNW,293,0.0,0.0,96,0.00,,,0.18,WUHU216HW,2013-01-10 06:36:00,
2013-01-09 22:41:00,31.6,30.6,29.53,WNW,293,0.0,0.0,96,0.00,,,0.18,WUHU216HW,2013-01-10 06:41:00,
2013-01-09 22:46:00,31.6,30.6,29.53,WNW,293,0.0,0.0,96,0.00,,,0.18,WUHU216HW,2013-01-10 06:46:00,
2013-01-09 22:51:00,31.6,30.6,29.53,WNW,293,0.0,0.0,96,0.00,,,0.18,WUHU216HW,2013-01-10 06:51:00,
2013-01-09 22:56:00,31.6,30.6,29.53,WNW,293,0.0,0.0,96,0.00,,,0.18,WUHU216HW,2013-01-10 06:56:00,
2013-01-09 23:01:00,31.6,30.6,29.53,WNW,293,0.0,0.0,96,0.00,,,0.18,WUHU216HW,2013-01-10 07:01:00,
2013-01-09 23:06:00,31.6,30.6,29.52,WNW,293,0.0,0.0,96,0.00,,,0.18,WUHU216HW,2013-01-10 07:06:00,
2013-01-09 23:11:00,31.6,30.6,29.52,WNW,293,0.0,0.0,96,0.00,,,0.18,WUHU216HW,2013-01-10 07:11:00,
2013-01-09 23:16:00,31.4,30.4,29.53,WNW,293,0.0,0.0,96,0.00,,,0.18,WUHU216HW,2013-01-10 07:16:00,
2013-01-09 23:21:00,31.4,30.4,29.53,WNW,293,0.0,0.0,96,0.00,,,0.18,WUHU216HW,2013-01-10 07:21:00,
2013-01-09 23:26:00,31.2,30.2,29.53,WNW,293,0.0,0.0,96,0.00,,,0.18,WUHU216HW,2013-01-10 07:26:00,
2013-01-09 23:31:00,31.2,30.2,29.53,WNW,293,0.0,0.0,96,0.00,,,0.18,WUHU216HW,2013-01-10 07:31:00,
2013-01-09 23:36:00,31.2,30.2,29.53,WNW,293,0.0,0.0,96,0.00,,,0.18,WUHU216HW,2013-01-10 07:36:00,
2013-01-09 23:41:00,31.2,30.2,29.53,WNW,293,0.0,0.0,96,0.00,,,0.18,WUHU216HW,2013-01-10 07:41:00,
2013-01-09 23:46:00,31.2,30.2,29.53,WNW,293,0.0,0.0,96,0.00,,,0.18,WUHU216HW,2013-01-10 07:46:00,
2013-01-09 23:51:00,31.2,30.2,29.52,WNW,293,0.0,0.0,96,0.00,,,0.18,WUHU216HW,2013-01-10 07:51:00,
2013-01-09 23:56:00,31.2,30.2,29.52,WNW,293,0.0,0.0,96,0.00,,,0.18,WUHU216HW,2013-01-10 07:56:00,